createdAt,value
2022-10-13T00:00:46.310Z,9.60
2022-10-13T00:03:13.685Z,9.57
2022-10-13T00:05:43.185Z,8.70
2022-10-13T00:08:11.470Z,8.93
2022-10-13T00:10:40.014Z,9.63
2022-10-13T00:13:08.324Z,10.02
2022-10-13T00:15:44.105Z,8.00
2022-10-13T00:18:11.368Z,9.30
2022-10-13T00:20:44.107Z,8.43
2022-10-13T00:23:11.009Z,8.95
2022-10-13T00:25:47.081Z,8.70
2022-10-13T00:28:16.554Z,8.77
2022-10-13T00:30:43.883Z,7.80
2022-10-13T00:33:12.541Z,9.20
2022-10-13T00:35:45.895Z,9.88
2022-10-13T00:38:13.747Z,7.90
2022-10-13T00:40:53.738Z,9.63
2022-10-13T00:43:23.705Z,8.85
2022-10-13T00:45:51.819Z,8.73
2022-10-13T00:48:28.226Z,8.50
2022-10-13T00:50:56.798Z,7.90
2022-10-13T00:53:28.797Z,8.45
2022-10-13T00:55:55.984Z,8.18
2022-10-13T00:58:25.585Z,8.07
2022-10-13T01:00:53.471Z,9.27
2022-10-13T01:03:21.419Z,9.00
2022-10-13T01:05:50.391Z,9.05
2022-10-13T01:08:19.036Z,8.85
2022-10-13T01:10:59.037Z,7.32
2022-10-13T01:13:56.491Z,8.10
2022-10-13T01:16:57.878Z,7.40
2022-10-13T01:19:59.660Z,7.13
2022-10-13T01:23:07.019Z,6.60
2022-10-13T01:26:02.924Z,6.32
2022-10-13T01:29:11.868Z,6.28
2022-10-13T01:32:08.114Z,6.07
2022-10-13T01:35:03.715Z,6.93
2022-10-13T01:41:40.626Z,6.13
2022-10-13T01:44:19.797Z,6.80
2022-10-13T01:46:48.528Z,6.65
2022-10-13T01:49:19.405Z,6.45
2022-10-13T01:51:47.770Z,6.70
2022-10-13T01:54:14.531Z,6.35
2022-10-13T01:56:41.273Z,5.85
2022-10-13T01:59:13.061Z,6.32
2022-10-13T02:02:01.907Z,6.05
2022-10-13T02:04:58.652Z,6.25
2022-10-13T02:07:51.015Z,6.45
2022-10-13T02:13:06.665Z,5.88
2022-10-13T02:15:51.145Z,5.65
2022-10-13T02:18:23.839Z,5.80
2022-10-13T02:20:51.618Z,6.18
2022-10-13T02:23:19.056Z,6.32
2022-10-13T02:25:47.652Z,6.00
2022-10-13T02:28:15.469Z,5.60
2022-10-13T02:30:43.367Z,6.20
2022-10-13T02:33:10.686Z,6.80
2022-10-13T02:35:37.977Z,6.68
2022-10-13T02:38:05.247Z,6.03
2022-10-13T02:40:32.386Z,5.78
2022-10-13T02:42:59.232Z,5.97
2022-10-13T02:45:26.238Z,5.97
2022-10-13T02:47:52.969Z,6.40
2022-10-13T02:50:19.704Z,6.15
2022-10-13T02:52:46.505Z,6.10
2022-10-13T02:55:13.199Z,5.57
2022-10-13T02:57:39.901Z,6.43
2022-10-13T03:00:08.073Z,5.30
2022-10-13T03:02:34.773Z,5.57
2022-10-13T03:05:01.488Z,6.15
2022-10-13T03:07:28.183Z,5.70
2022-10-13T03:09:54.905Z,6.35
2022-10-13T03:12:22.028Z,5.90
2022-10-13T03:14:48.953Z,5.88
2022-10-13T03:17:15.628Z,5.65
2022-10-13T03:19:42.363Z,5.82
2022-10-13T03:22:09.100Z,5.55
2022-10-13T03:24:35.817Z,6.28
2022-10-13T03:27:02.507Z,5.82
2022-10-13T03:29:29.409Z,5.75
2022-10-13T03:31:56.092Z,5.75
2022-10-13T03:34:22.805Z,5.75
2022-10-13T03:36:49.600Z,5.78
2022-10-13T03:39:16.446Z,6.00
2022-10-13T03:41:43.242Z,5.97
2022-10-13T03:44:13.577Z,6.47
2022-10-13T03:46:40.499Z,6.45
2022-10-13T03:49:07.284Z,6.03
2022-10-13T03:51:34.200Z,6.07
2022-10-13T03:54:00.881Z,6.60
2022-10-13T03:56:28.446Z,6.43
2022-10-13T03:59:00.713Z,6.32
2022-10-13T04:01:30.484Z,6.20
2022-10-13T04:03:59.471Z,6.25
2022-10-13T04:06:26.672Z,6.93
2022-10-13T04:08:53.837Z,5.88
2022-10-13T04:11:21.852Z,6.43
2022-10-13T04:13:48.566Z,5.95
2022-10-13T04:16:23.351Z,6.20
2022-10-13T04:19:00.800Z,5.75
2022-10-13T04:21:28.448Z,5.70
2022-10-13T04:23:59.973Z,5.60
2022-10-13T04:26:31.251Z,5.85
2022-10-13T04:28:58.824Z,6.20
2022-10-13T04:31:28.395Z,5.70
2022-10-13T04:33:55.232Z,5.60
2022-10-13T04:36:24.263Z,5.50
2022-10-13T04:38:51.836Z,5.85
2022-10-13T04:41:19.487Z,5.93
2022-10-13T04:43:51.256Z,6.47
2022-10-13T04:46:23.097Z,6.22
2022-10-13T04:48:50.404Z,6.68
2022-10-13T04:51:20.935Z,6.53
2022-10-13T04:53:48.221Z,6.72
2022-10-13T04:56:17.180Z,6.45
2022-10-13T04:58:45.844Z,6.68
2022-10-13T05:01:22.082Z,6.45
2022-10-13T05:03:53.629Z,7.63
2022-10-13T05:06:24.091Z,7.20
2022-10-13T05:08:51.662Z,6.85
2022-10-13T05:11:20.421Z,5.75
2022-10-13T05:13:48.486Z,7.10
2022-10-13T05:16:17.910Z,6.22
2022-10-13T05:18:45.389Z,6.85
2022-10-13T05:21:15.518Z,6.50
2022-10-13T05:23:45.164Z,6.60
2022-10-13T05:26:17.582Z,7.28
2022-10-13T05:28:45.435Z,6.25
2022-10-13T05:31:22.633Z,6.65
2022-10-13T05:33:50.327Z,7.05
2022-10-13T05:36:21.073Z,6.00
2022-10-13T05:38:56.943Z,6.68
2022-10-13T06:03:39.833Z,6.32
2022-10-13T06:06:07.013Z,6.53
2022-10-13T06:08:33.972Z,7.55
2022-10-13T06:11:00.753Z,7.15
2022-10-13T06:13:27.430Z,7.45
2022-10-13T06:15:54.170Z,6.88
2022-10-13T06:18:20.912Z,7.35
2022-10-13T06:20:47.617Z,8.35
2022-10-13T06:23:14.285Z,8.90
2022-10-13T06:25:52.504Z,8.13
2022-10-13T06:28:20.513Z,8.60
2022-10-13T06:30:53.706Z,8.70
2022-10-13T06:33:21.926Z,8.20
2022-10-13T06:35:48.901Z,8.38
2022-10-13T06:38:15.582Z,8.27
2022-10-13T06:40:42.288Z,7.68
2022-10-13T06:43:09.967Z,7.47
2022-10-13T06:45:36.753Z,8.60
2022-10-13T06:48:03.764Z,7.25
2022-10-13T06:50:32.100Z,7.45
2022-10-13T06:52:58.786Z,6.90
2022-10-13T06:55:25.588Z,8.68
2022-10-13T06:57:52.282Z,8.65
2022-10-13T07:00:19.122Z,8.20
2022-10-13T07:02:49.541Z,8.43
2022-10-13T07:05:16.231Z,6.75
2022-10-13T07:07:42.934Z,7.03
2022-10-13T07:10:09.958Z,7.28
2022-10-13T07:12:36.667Z,7.60
2022-10-13T07:15:04.713Z,8.15
2022-10-13T07:17:31.472Z,8.60
2022-10-13T07:19:58.671Z,8.70
2022-10-13T07:22:27.096Z,8.25
2022-10-13T07:24:53.801Z,7.72
2022-10-13T07:27:20.882Z,7.25
2022-10-13T07:29:47.889Z,8.15
2022-10-13T07:32:14.620Z,7.50
2022-10-13T07:34:41.400Z,6.80
2022-10-13T07:37:08.132Z,6.72
2022-10-13T07:39:34.924Z,7.90
2022-10-13T07:42:01.647Z,6.28
2022-10-13T07:44:28.488Z,7.70
2022-10-13T07:46:55.178Z,8.15
2022-10-13T07:49:22.762Z,7.55
2022-10-13T07:51:49.502Z,6.68
2022-10-13T07:54:20.634Z,7.20
2022-10-13T07:56:52.556Z,6.88
2022-10-13T07:59:19.465Z,7.53
2022-10-13T08:01:46.223Z,8.50
2022-10-13T08:04:13.056Z,7.75
2022-10-13T08:09:07.167Z,7.22
2022-10-13T08:11:33.858Z,7.57
2022-10-13T08:14:01.506Z,7.50
2022-10-13T08:16:29.589Z,7.30
2022-10-13T08:18:58.262Z,8.32
2022-10-13T08:21:56.995Z,8.32
2022-10-13T08:24:16.641Z,8.15
2022-10-13T08:26:45.411Z,7.22
2022-10-13T08:29:28.658Z,7.93
2022-10-13T08:31:55.683Z,6.13
2022-10-13T08:34:24.029Z,6.57
2022-10-13T08:36:54.125Z,6.95
2022-10-13T08:39:22.689Z,7.53
2022-10-13T08:41:50.505Z,6.57
2022-10-13T08:45:15.741Z,6.28
2022-10-13T08:47:40.537Z,5.85
2022-10-13T08:50:21.941Z,6.47
2022-10-13T08:53:13.215Z,6.15
2022-10-13T08:55:52.257Z,6.07
2022-10-13T08:58:26.016Z,5.70
2022-10-13T09:01:09.082Z,5.40
2022-10-13T09:04:08.021Z,5.88
2022-10-13T09:06:42.416Z,6.35
2022-10-13T09:09:12.243Z,5.93
2022-10-13T09:11:42.969Z,5.60
2022-10-13T09:14:23.849Z,5.97
2022-10-13T09:16:52.222Z,5.55
2022-10-13T09:19:34.051Z,5.75
2022-10-13T09:22:32.369Z,6.13
2022-10-13T09:25:15.270Z,5.60
2022-10-13T09:27:53.548Z,5.50
2022-10-13T09:30:40.653Z,5.43
2022-10-13T09:33:13.339Z,5.78
2022-10-13T09:35:42.675Z,6.13
2022-10-13T09:38:24.954Z,6.70
2022-10-13T09:41:12.912Z,5.82
2022-10-13T09:43:48.652Z,5.22
2022-10-13T09:46:35.665Z,6.00
2022-10-13T09:49:25.396Z,5.82
2022-10-13T09:51:52.382Z,5.05
2022-10-13T09:54:45.651Z,5.50
2022-10-13T09:57:35.592Z,6.10
2022-10-13T10:00:14.708Z,5.00
2022-10-13T10:02:49.687Z,5.32
2022-10-13T10:05:48.189Z,5.95
2022-10-13T10:09:02.855Z,4.90
2022-10-13T10:11:34.799Z,5.18
2022-10-13T10:14:28.867Z,4.50
2022-10-13T10:17:29.471Z,4.43
2022-10-13T10:19:56.106Z,4.93
2022-10-13T10:22:57.011Z,4.95
2022-10-13T10:25:49.302Z,4.50
2022-10-13T10:29:01.576Z,4.60
2022-10-13T10:34:35.430Z,4.82
2022-10-13T10:37:21.440Z,4.53
2022-10-13T10:40:34.841Z,5.03
2022-10-13T10:43:29.327Z,5.13
2022-10-13T10:45:59.105Z,4.63
2022-10-13T10:48:36.184Z,5.15
2022-10-13T10:51:06.402Z,4.93
2022-10-13T10:54:16.800Z,4.72
2022-10-13T10:56:53.060Z,5.28
2022-10-13T10:59:29.237Z,4.88
2022-10-13T11:02:07.985Z,4.70
2022-10-13T11:04:41.885Z,5.53
2022-10-13T11:07:33.429Z,5.90
2022-10-13T11:10:01.377Z,4.95
2022-10-13T11:12:52.951Z,4.85
2022-10-13T11:15:31.067Z,5.30
2022-10-13T11:17:58.072Z,4.53
2022-10-13T11:20:25.272Z,5.38
2022-10-13T11:23:12.161Z,4.75
2022-10-13T11:25:40.936Z,5.10
2022-10-13T11:28:22.980Z,5.00
2022-10-13T11:30:55.178Z,4.70
2022-10-13T11:33:38.355Z,4.40
2022-10-13T11:36:39.633Z,4.60
2022-10-13T11:39:27.479Z,4.25
2022-10-13T11:42:12.195Z,4.70
2022-10-13T11:44:58.787Z,5.88
2022-10-13T11:47:55.465Z,4.88
2022-10-13T11:50:51.946Z,4.80
2022-10-13T11:54:04.178Z,4.97
2022-10-13T11:56:54.105Z,4.22
2022-10-13T11:59:35.578Z,5.00
2022-10-13T12:02:11.418Z,4.72
2022-10-13T12:04:45.549Z,4.30
2022-10-13T12:07:15.959Z,4.22
2022-10-13T12:09:55.035Z,4.47
2022-10-13T12:12:24.073Z,4.50
2022-10-13T12:14:54.989Z,4.53
2022-10-13T12:17:27.738Z,4.73
2022-10-13T12:20:24.097Z,4.25
2022-10-13T12:22:52.799Z,4.57
2022-10-13T12:25:23.094Z,3.90
2022-10-13T12:28:00.357Z,4.47
2022-10-13T12:30:36.989Z,4.30
2022-10-13T12:33:19.633Z,4.05
2022-10-13T12:35:46.355Z,3.90
2022-10-13T12:38:20.374Z,4.18
2022-10-13T12:40:53.422Z,3.83
2022-10-13T12:43:26.500Z,4.47
2022-10-13T12:45:53.378Z,4.00
2022-10-13T12:48:36.080Z,4.22
2022-10-13T12:51:28.017Z,3.95
2022-10-13T12:53:55.089Z,3.78
2022-10-13T12:56:31.319Z,4.15
2022-10-13T12:58:58.975Z,3.53
2022-10-13T13:01:33.434Z,4.28
2022-10-13T13:04:16.238Z,4.63
2022-10-13T13:07:03.289Z,4.22
2022-10-13T13:09:35.474Z,5.13
2022-10-13T13:12:11.117Z,4.45
2022-10-13T13:14:49.218Z,3.83
2022-10-13T13:17:38.420Z,5.10
2022-10-13T13:20:33.191Z,5.28
2022-10-13T13:23:00.676Z,4.35
2022-10-13T13:25:27.602Z,4.97
2022-10-13T13:27:54.522Z,4.60
2022-10-13T13:30:23.690Z,5.45
2022-10-13T13:32:50.752Z,4.88
2022-10-13T13:35:17.633Z,6.22
2022-10-13T13:37:48.068Z,5.10
2022-10-13T13:40:18.349Z,4.85
2022-10-13T13:42:45.190Z,4.30
2022-10-13T13:45:18.049Z,5.57
2022-10-13T13:47:44.976Z,5.10
2022-10-13T13:50:19.078Z,5.20
2022-10-13T13:52:45.894Z,6.38
2022-10-13T13:55:12.620Z,5.57
2022-10-13T13:57:39.354Z,5.55
2022-10-13T14:00:07.211Z,6.22
2022-10-13T14:02:33.920Z,5.68
2022-10-13T14:05:00.613Z,5.43
2022-10-13T14:07:27.312Z,6.10
2022-10-13T14:09:57.805Z,6.15
2022-10-13T14:12:30.628Z,6.28
2022-10-13T14:14:58.409Z,5.78
2022-10-13T14:17:28.417Z,5.57
2022-10-13T14:19:55.486Z,6.32
2022-10-13T14:22:23.021Z,6.25
2022-10-13T14:24:49.977Z,5.32
2022-10-13T14:27:16.746Z,5.82
2022-10-13T14:29:43.548Z,5.55
2022-10-13T14:32:10.254Z,5.90
2022-10-13T14:34:36.938Z,6.68
2022-10-13T14:37:03.747Z,7.05
2022-10-13T14:39:30.451Z,6.28
2022-10-13T14:41:57.162Z,6.13
2022-10-13T14:44:23.900Z,6.00
2022-10-13T14:46:50.583Z,6.35
2022-10-13T14:49:17.288Z,5.85
2022-10-13T14:51:44.276Z,6.20
2022-10-13T14:54:10.982Z,6.78
2022-10-13T14:56:37.772Z,5.97
2022-10-13T14:59:06.942Z,6.13
2022-10-13T15:01:34.209Z,6.20
2022-10-13T15:04:01.630Z,6.22
2022-10-13T15:06:28.630Z,6.57
2022-10-13T15:08:55.599Z,7.72
2022-10-13T15:11:23.422Z,8.05
2022-10-13T15:13:50.177Z,7.88
2022-10-13T15:16:28.065Z,8.00
2022-10-13T15:18:56.029Z,7.10
2022-10-13T15:21:23.864Z,7.03
2022-10-13T15:23:50.985Z,5.63
2022-10-13T15:26:19.282Z,6.00
2022-10-13T15:28:49.151Z,6.45
2022-10-13T15:31:18.293Z,6.13
2022-10-13T15:33:51.718Z,6.25
2022-10-13T15:36:20.161Z,5.82
2022-10-13T15:38:46.925Z,6.25
2022-10-13T15:41:13.714Z,6.75
2022-10-13T15:43:40.482Z,6.72
2022-10-13T15:46:11.559Z,6.47
2022-10-13T15:48:39.492Z,7.53
2022-10-13T15:51:14.410Z,6.57
2022-10-13T15:53:41.248Z,6.88
2022-10-13T15:56:08.728Z,7.47
2022-10-13T15:58:36.162Z,7.07
2022-10-13T16:01:08.846Z,7.07
2022-10-13T16:03:36.733Z,6.53
2022-10-13T16:06:07.322Z,7.45
2022-10-13T16:08:43.549Z,7.90
2022-10-13T16:11:21.976Z,7.57
2022-10-13T16:13:51.504Z,7.57
2022-10-13T16:16:18.925Z,7.95
2022-10-13T16:18:45.914Z,7.70
2022-10-13T16:21:18.925Z,7.97
2022-10-13T16:23:47.378Z,8.63
2022-10-13T16:26:17.206Z,8.13
2022-10-13T16:28:45.683Z,8.68
2022-10-13T16:31:15.454Z,8.73
2022-10-13T16:33:43.776Z,8.02
2022-10-13T16:36:17.361Z,8.38
2022-10-13T16:38:45.987Z,8.45
2022-10-13T16:41:18.050Z,8.30
2022-10-13T16:43:45.838Z,8.85
2022-10-13T16:46:16.131Z,9.02
2022-10-13T16:48:44.701Z,8.95
2022-10-13T16:51:30.006Z,8.68
2022-10-13T16:54:03.883Z,8.18
2022-10-13T16:56:31.847Z,9.35
2022-10-13T16:59:04.893Z,9.50
2022-10-13T17:01:33.173Z,8.18
2022-10-13T17:04:00.697Z,8.20
2022-10-13T17:06:28.932Z,8.55
2022-10-13T17:08:58.532Z,8.60
2022-10-13T17:11:29.000Z,10.32
2022-10-13T17:14:00.657Z,9.00
2022-10-13T17:16:27.996Z,9.80
2022-10-13T17:18:55.512Z,9.13
2022-10-13T17:21:22.358Z,10.38
2022-10-13T17:23:50.350Z,9.25
2022-10-13T17:26:18.990Z,9.55
2022-10-13T17:28:46.005Z,10.63
2022-10-13T17:31:22.195Z,10.10
2022-10-13T17:33:50.069Z,9.93
2022-10-13T17:36:24.713Z,9.95
2022-10-13T17:38:53.324Z,11.10
2022-10-13T17:41:20.918Z,10.45
2022-10-13T17:43:48.384Z,9.73
2022-10-13T17:46:36.284Z,10.13
2022-10-13T17:49:06.604Z,10.40
2022-10-13T17:51:33.333Z,10.75
2022-10-13T17:54:00.883Z,10.15
2022-10-13T17:56:28.896Z,10.57
2022-10-13T17:58:55.787Z,11.48
2022-10-13T18:01:32.447Z,10.75
2022-10-13T18:04:03.680Z,10.77
2022-10-13T18:06:37.927Z,10.38
2022-10-13T18:09:08.932Z,10.57
2022-10-13T18:11:36.445Z,10.63
2022-10-13T18:14:04.273Z,10.00
2022-10-13T18:16:31.073Z,9.27
2022-10-13T18:18:57.748Z,9.40
2022-10-13T18:21:27.695Z,9.25
2022-10-13T18:23:59.446Z,9.88
2022-10-13T18:26:28.946Z,8.73
2022-10-13T18:28:56.879Z,8.50
2022-10-13T18:31:31.626Z,8.98
2022-10-13T18:34:12.528Z,9.20
2022-10-13T18:36:48.366Z,8.52
2022-10-13T18:39:27.589Z,9.00
2022-10-13T18:41:56.425Z,8.43
2022-10-13T18:44:25.010Z,8.02
2022-10-13T18:46:53.744Z,7.40
2022-10-13T18:49:30.710Z,7.00
2022-10-13T18:52:01.589Z,6.45
2022-10-13T18:54:30.202Z,6.38
2022-10-13T18:56:57.389Z,6.95
2022-10-13T18:59:24.323Z,7.45
2022-10-13T19:01:51.211Z,7.65
2022-10-13T19:04:17.919Z,7.07
2022-10-13T19:06:46.258Z,6.78
2022-10-13T19:09:15.137Z,6.75
2022-10-13T19:11:41.970Z,6.50
2022-10-13T19:14:12.584Z,5.93
2022-10-13T19:16:42.238Z,6.47
2022-10-13T19:19:09.412Z,6.30
2022-10-13T19:21:38.262Z,5.95
2022-10-13T19:24:06.221Z,5.40
2022-10-13T19:26:35.100Z,6.10
2022-10-13T19:29:11.857Z,6.00
2022-10-13T19:31:41.796Z,5.20
2022-10-13T19:34:10.650Z,5.55
2022-10-13T19:36:41.678Z,4.90
2022-10-13T19:39:20.158Z,4.65
2022-10-13T19:41:49.032Z,5.43
2022-10-13T19:44:17.817Z,5.28
2022-10-13T19:46:46.744Z,5.13
2022-10-13T19:49:17.035Z,5.70
2022-10-13T19:51:43.738Z,5.47
2022-10-13T19:54:11.186Z,5.00
2022-10-13T19:56:38.600Z,5.43
2022-10-13T19:59:05.326Z,4.85
2022-10-13T20:01:39.700Z,4.65
2022-10-13T20:04:07.917Z,5.00
2022-10-13T20:06:35.283Z,4.85
2022-10-13T20:09:01.972Z,5.03
2022-10-13T20:11:28.711Z,4.95
2022-10-13T20:13:55.406Z,4.80
2022-10-13T20:16:24.673Z,5.25
2022-10-13T20:18:58.073Z,6.03
2022-10-13T20:21:27.214Z,5.15
2022-10-13T20:23:53.968Z,4.80
2022-10-13T20:26:21.625Z,4.57
2022-10-13T20:28:50.673Z,5.55
2022-10-13T20:31:20.050Z,4.60
2022-10-13T20:33:49.226Z,4.95
2022-10-13T20:36:18.968Z,5.18
2022-10-13T20:38:49.074Z,5.22
2022-10-13T20:41:24.760Z,5.40
2022-10-13T20:43:53.791Z,5.18
2022-10-13T20:46:21.688Z,5.72
2022-10-13T20:49:09.814Z,5.82
2022-10-13T20:51:36.050Z,5.53
2022-10-13T20:54:02.984Z,6.03
2022-10-13T20:56:29.807Z,5.25
2022-10-13T20:58:56.650Z,5.70
2022-10-13T21:01:23.804Z,5.93
2022-10-13T21:03:55.158Z,6.28
2022-10-13T21:06:23.811Z,7.38
2022-10-13T21:08:51.030Z,5.80
2022-10-13T21:11:20.660Z,5.85
2022-10-13T21:13:48.495Z,6.40
2022-10-13T21:16:19.182Z,6.85
2022-10-13T21:18:48.809Z,6.55
2022-10-13T21:21:19.664Z,7.07
2022-10-13T21:23:56.520Z,6.95
2022-10-13T21:26:25.099Z,6.90
2022-10-13T21:28:52.598Z,7.30
2022-10-13T21:31:22.168Z,6.63
2022-10-13T21:33:49.777Z,7.30
2022-10-13T21:36:20.655Z,8.60
2022-10-13T21:38:51.259Z,7.78
2022-10-13T21:41:18.132Z,7.68
2022-10-13T21:43:44.879Z,7.80
2022-10-13T21:46:25.263Z,8.45
2022-10-13T21:48:54.911Z,8.40
2022-10-13T21:51:25.450Z,8.48
2022-10-13T21:53:55.518Z,8.93
2022-10-13T21:56:23.393Z,8.85
2022-10-13T21:58:50.099Z,9.18
2022-10-13T22:01:18.707Z,9.05
2022-10-13T22:03:52.207Z,9.05
2022-10-13T22:06:19.763Z,8.63
2022-10-13T22:08:49.728Z,9.60
2022-10-13T22:11:17.495Z,9.25
2022-10-13T22:13:44.397Z,9.20
2022-10-13T22:16:19.609Z,10.95
2022-10-13T22:18:47.191Z,9.98
2022-10-13T22:21:19.010Z,9.90
2022-10-13T22:23:46.269Z,10.70
2022-10-13T22:26:15.103Z,10.40
2022-10-13T22:28:42.640Z,11.93
2022-10-13T22:31:12.560Z,11.52
2022-10-13T22:33:41.504Z,10.57
2022-10-13T22:36:16.542Z,10.82
2022-10-13T22:38:46.496Z,11.02
2022-10-13T22:41:14.524Z,10.68
2022-10-13T22:43:43.985Z,10.88
2022-10-13T22:46:16.422Z,10.32
2022-10-13T22:48:43.973Z,10.73
2022-10-13T22:51:15.708Z,11.13
2022-10-13T22:53:43.276Z,10.75
2022-10-13T22:56:18.073Z,10.77
2022-10-13T22:58:53.113Z,12.13
2022-10-13T23:01:21.112Z,10.30
2022-10-13T23:03:49.812Z,12.15
2022-10-13T23:06:20.846Z,12.10
2022-10-13T23:08:48.772Z,10.85
2022-10-13T23:11:16.786Z,11.43
2022-10-13T23:13:43.647Z,10.80
2022-10-13T23:16:15.279Z,12.27
2022-10-13T23:18:42.909Z,10.93
2022-10-13T23:21:14.172Z,12.55
2022-10-13T23:23:40.925Z,11.07
2022-10-13T23:26:14.538Z,10.70
2022-10-13T23:28:42.086Z,11.80
2022-10-13T23:31:13.582Z,12.57
2022-10-13T23:33:40.512Z,12.07
2022-10-13T23:36:08.265Z,11.50
2022-10-13T23:38:35.328Z,11.60
2022-10-13T23:41:08.649Z,12.43
2022-10-13T23:43:35.905Z,11.07
2022-10-13T23:46:03.437Z,11.30
2022-10-13T23:48:30.121Z,11.02
2022-10-13T23:50:57.323Z,10.68
2022-10-13T23:53:24.331Z,10.80
2022-10-13T23:55:51.017Z,10.77
2022-10-13T23:58:17.726Z,10.88
